sensor_id;sensor_type;location;lat;lon;timestamp;pressure;altitude;pressure_sealevel;temperature;humidity
62833;BME280;48891;49.220;6.920;2023-08-31T00:01:37;98475.78;;;21.97;57.94
62833;BME280;48891;49.220;6.920;2023-08-31T00:04:02;98473.28;;;21.96;58.40
62833;BME280;48891;49.220;6.920;2023-08-31T00:06:27;98469.91;;;21.94;58.30
62833;BME280;48891;49.220;6.920;2023-08-31T00:08:52;98461.38;;;21.90;58.30
62833;BME280;48891;49.220;6.920;2023-08-31T00:11:18;98484.66;;;21.98;57.95
62833;BME280;48891;49.220;6.920;2023-08-31T00:13:43;98478.63;;;21.96;58.16
62833;BME280;48891;49.220;6.920;2023-08-31T00:16:08;98481.31;;;21.96;57.95
62833;BME280;48891;49.220;6.920;2023-08-31T00:18:34;98482.16;;;21.96;58.03
62833;BME280;48891;49.220;6.920;2023-08-31T00:20:59;98479.47;;;21.96;57.99
62833;BME280;48891;49.220;6.920;2023-08-31T00:23:24;98468.72;;;21.88;57.67
62833;BME280;48891;49.220;6.920;2023-08-31T00:25:50;98460.00;;;21.86;58.06
62833;BME280;48891;49.220;6.920;2023-08-31T00:28:17;98471.06;;;21.91;57.73
62833;BME280;48891;49.220;6.920;2023-08-31T00:30:42;98480.47;;;21.95;57.77
62833;BME280;48891;49.220;6.920;2023-08-31T00:33:07;98482.47;;;21.93;57.94
62833;BME280;48891;49.220;6.920;2023-08-31T00:35:35;98486.03;;;21.94;57.63
62833;BME280;48891;49.220;6.920;2023-08-31T00:38:00;98480.81;;;21.92;57.73
62833;BME280;48891;49.220;6.920;2023-08-31T00:40:26;98479.78;;;21.93;57.97
62833;BME280;48891;49.220;6.920;2023-08-31T00:42:51;98480.81;;;21.92;57.83
62833;BME280;48891;49.220;6.920;2023-08-31T00:45:17;98489.69;;;21.93;57.68
62833;BME280;48891;49.220;6.920;2023-08-31T00:47:42;98481.66;;;21.93;57.87
62833;BME280;48891;49.220;6.920;2023-08-31T00:50:07;98483.50;;;21.92;57.91
62833;BME280;48891;49.220;6.920;2023-08-31T00:52:33;98488.00;;;21.92;57.95
62833;BME280;48891;49.220;6.920;2023-08-31T00:54:59;98489.88;;;21.91;57.63
62833;BME280;48891;49.220;6.920;2023-08-31T00:57:26;98491.72;;;21.91;57.60
62833;BME280;48891;49.220;6.920;2023-08-31T00:59:54;98483.16;;;21.87;57.50
62833;BME280;48891;49.220;6.920;2023-08-31T01:02:24;98486.50;;;21.89;57.73
62833;BME280;48891;49.220;6.920;2023-08-31T01:05:01;98486.50;;;21.89;57.50
62833;BME280;48891;49.220;6.920;2023-08-31T01:07:36;98499.78;;;21.91;57.53
62833;BME280;48891;49.220;6.920;2023-08-31T01:10:27;98508.81;;;21.90;57.68
62833;BME280;48891;49.220;6.920;2023-08-31T01:12:56;98510.66;;;21.89;57.50
62833;BME280;48891;49.220;6.920;2023-08-31T01:15:26;98506.28;;;21.88;57.72
62833;BME280;48891;49.220;6.920;2023-08-31T01:17:54;98499.09;;;21.89;57.73
62833;BME280;48891;49.220;6.920;2023-08-31T01:20:28;98485.00;;;21.78;57.54
62833;BME280;48891;49.220;6.920;2023-08-31T01:23:00;98500.91;;;21.88;57.59
62833;BME280;48891;49.220;6.920;2023-08-31T01:25:27;98500.91;;;21.88;57.48
62833;BME280;48891;49.220;6.920;2023-08-31T01:27:53;98505.47;;;21.88;57.58
62833;BME280;48891;49.220;6.920;2023-08-31T01:30:18;98503.25;;;21.83;57.36
62833;BME280;48891;49.220;6.920;2023-08-31T01:32:44;98506.44;;;21.87;57.61
62833;BME280;48891;49.220;6.920;2023-08-31T01:35:10;98478.63;;;21.71;57.38
62833;BME280;48891;49.220;6.920;2023-08-31T01:37:49;98506.44;;;21.87;57.37
62833;BME280;48891;49.220;6.920;2023-08-31T01:40:20;98497.59;;;21.78;57.46
62833;BME280;48891;49.220;6.920;2023-08-31T01:42:47;98500.06;;;21.79;57.58
62833;BME280;48891;49.220;6.920;2023-08-31T01:45:15;98506.66;;;21.85;57.32
62833;BME280;48891;49.220;6.920;2023-08-31T01:47:42;98501.28;;;21.85;57.62
62833;BME280;48891;49.220;6.920;2023-08-31T01:50:08;98503.97;;;21.85;57.40
62833;BME280;48891;49.220;6.920;2023-08-31T01:52:33;98505.94;;;21.83;57.29
62833;BME280;48891;49.220;6.920;2023-08-31T01:54:59;98509.31;;;21.85;57.36
62833;BME280;48891;49.220;6.920;2023-08-31T01:57:24;98513.84;;;21.85;57.61
62833;BME280;48891;49.220;6.920;2023-08-31T01:59:49;98516.69;;;21.83;57.34
62833;BME280;48891;49.220;6.920;2023-08-31T02:02:14;98521.88;;;21.85;57.49
62833;BME280;48891;49.220;6.920;2023-08-31T02:04:40;98519.38;;;21.83;57.31
62833;BME280;48891;49.220;6.920;2023-08-31T02:07:05;98514.84;;;21.84;57.37
62833;BME280;48891;49.220;6.920;2023-08-31T02:09:30;98521.22;;;21.83;57.35
62833;BME280;48891;49.220;6.920;2023-08-31T02:11:55;98527.41;;;21.83;57.41
62833;BME280;48891;49.220;6.920;2023-08-31T02:14:21;98526.59;;;21.83;57.12
62833;BME280;48891;49.220;6.920;2023-08-31T02:16:46;98522.25;;;21.82;57.33
62833;BME280;48891;49.220;6.920;2023-08-31T02:19:11;98529.25;;;21.83;57.36
62833;BME280;48891;49.220;6.920;2023-08-31T02:21:37;98528.44;;;21.82;57.42
62833;BME280;48891;49.220;6.920;2023-08-31T02:24:02;98531.94;;;21.83;57.36
62833;BME280;48891;49.220;6.920;2023-08-31T02:26:27;98529.44;;;21.81;57.31
62833;BME280;48891;49.220;6.920;2023-08-31T02:28:53;98530.59;;;21.78;57.18
62833;BME280;48891;49.220;6.920;2023-08-31T02:31:18;98540.16;;;21.81;57.04
62833;BME280;48891;49.220;6.920;2023-08-31T02:33:43;98536.81;;;21.79;57.38
62833;BME280;48891;49.220;6.920;2023-08-31T02:36:08;98536.66;;;21.80;57.13
62833;BME280;48891;49.220;6.920;2023-08-31T02:38:34;98537.47;;;21.81;57.15
62833;BME280;48891;49.220;6.920;2023-08-31T02:40:59;98542.00;;;21.80;57.45
62833;BME280;48891;49.220;6.920;2023-08-31T02:43:24;98529.78;;;21.78;57.31
62833;BME280;48891;49.220;6.920;2023-08-31T02:45:49;98537.13;;;21.76;57.56
62833;BME280;48891;49.220;6.920;2023-08-31T02:48:15;98547.53;;;21.79;56.86
62833;BME280;48891;49.220;6.920;2023-08-31T02:50:40;98549.38;;;21.78;57.25
62833;BME280;48891;49.220;6.920;2023-08-31T02:53:05;98545.00;;;21.77;57.39
62833;BME280;48891;49.220;6.920;2023-08-31T02:55:33;98546.72;;;21.78;57.31
62833;BME280;48891;49.220;6.920;2023-08-31T02:57:59;98554.91;;;21.77;57.18
62833;BME280;48891;49.220;6.920;2023-08-31T03:00:24;98551.25;;;21.78;57.33
62833;BME280;48891;49.220;6.920;2023-08-31T03:02:49;98545.00;;;21.77;57.35
62833;BME280;48891;49.220;6.920;2023-08-31T03:05:14;98548.56;;;21.78;57.11
62833;BME280;48891;49.220;6.920;2023-08-31T03:07:40;98551.25;;;21.78;57.09
62833;BME280;48891;49.220;6.920;2023-08-31T03:10:05;98548.56;;;21.78;57.41
62833;BME280;48891;49.220;6.920;2023-08-31T03:12:31;98544.34;;;21.75;57.11
62833;BME280;48891;49.220;6.920;2023-08-31T03:14:56;98551.41;;;21.76;57.40
62833;BME280;48891;49.220;6.920;2023-08-31T03:17:21;98552.41;;;21.75;57.19
62833;BME280;48891;49.220;6.920;2023-08-31T03:19:47;98552.22;;;21.77;57.12
62833;BME280;48891;49.220;6.920;2023-08-31T03:22:12;98548.72;;;21.76;57.17
62833;BME280;48891;49.220;6.920;2023-08-31T03:24:37;98552.41;;;21.75;57.15
62833;BME280;48891;49.220;6.920;2023-08-31T03:27:03;98552.22;;;21.77;57.04
62833;BME280;48891;49.220;6.920;2023-08-31T03:29:28;98559.63;;;21.75;57.14
62833;BME280;48891;49.220;6.920;2023-08-31T03:31:53;98558.59;;;21.76;57.08
62833;BME280;48891;49.220;6.920;2023-08-31T03:34:18;98561.28;;;21.76;57.21
62833;BME280;48891;49.220;6.920;2023-08-31T03:36:44;98564.16;;;21.74;57.50
62833;BME280;48891;49.220;6.920;2023-08-31T03:39:09;98565.97;;;21.74;56.99
62833;BME280;48891;49.220;6.920;2023-08-31T03:41:34;98562.28;;;21.75;56.89
62833;BME280;48891;49.220;6.920;2023-08-31T03:43:59;98560.59;;;21.74;57.02
62833;BME280;48891;49.220;6.920;2023-08-31T03:46:25;98552.88;;;21.71;57.22
62833;BME280;48891;49.220;6.920;2023-08-31T03:48:50;98558.94;;;21.73;57.35
62833;BME280;48891;49.220;6.920;2023-08-31T03:51:15;98551.22;;;21.70;57.24
62833;BME280;48891;49.220;6.920;2023-08-31T03:53:40;98555.25;;;21.74;57.40
62833;BME280;48891;49.220;6.920;2023-08-31T03:56:06;98552.56;;;21.74;56.94
62833;BME280;48891;49.220;6.920;2023-08-31T03:58:31;98551.72;;;21.73;57.23
62833;BME280;48891;49.220;6.920;2023-08-31T04:00:56;98549.03;;;21.73;57.24
62833;BME280;48891;49.220;6.920;2023-08-31T04:03:22;98543.84;;;21.72;57.22
62833;BME280;48891;49.220;6.920;2023-08-31T04:05:47;98549.19;;;21.72;57.21
62833;BME280;48891;49.220;6.920;2023-08-31T04:08:12;98551.84;;;21.64;57.20
62833;BME280;48891;49.220;6.920;2023-08-31T04:10:37;98559.25;;;21.70;56.95
62833;BME280;48891;49.220;6.920;2023-08-31T04:13:03;98540.44;;;21.61;57.24
62833;BME280;48891;49.220;6.920;2023-08-31T04:15:28;98562.78;;;21.70;57.29
62833;BME280;48891;49.220;6.920;2023-08-31T04:17:53;98563.59;;;21.71;57.17
62833;BME280;48891;49.220;6.920;2023-08-31T04:20:18;98558.44;;;21.69;56.95
62833;BME280;48891;49.220;6.920;2023-08-31T04:22:44;98567.31;;;21.70;56.97
62833;BME280;48891;49.220;6.920;2023-08-31T04:25:09;98578.03;;;21.70;57.31
62833;BME280;48891;49.220;6.920;2023-08-31T04:27:34;98578.03;;;21.70;57.24
62833;BME280;48891;49.220;6.920;2023-08-31T04:30:03;98573.66;;;21.69;56.96
62833;BME280;48891;49.220;6.920;2023-08-31T04:32:28;98583.41;;;21.70;57.32
62833;BME280;48891;49.220;6.920;2023-08-31T04:34:53;98582.72;;;21.68;57.11
62833;BME280;48891;49.220;6.920;2023-08-31T04:37:19;98580.06;;;21.68;57.07
62833;BME280;48891;49.220;6.920;2023-08-31T04:39:44;98563.72;;;21.53;57.01
62833;BME280;48891;49.220;6.920;2023-08-31T04:42:09;98595.13;;;21.69;56.92
62833;BME280;48891;49.220;6.920;2023-08-31T04:44:35;98595.28;;;21.67;57.00
62833;BME280;48891;49.220;6.920;2023-08-31T04:47:00;98595.28;;;21.67;57.27
62833;BME280;48891;49.220;6.920;2023-08-31T04:49:25;98594.47;;;21.67;56.99
62833;BME280;48891;49.220;6.920;2023-08-31T04:51:51;98601.50;;;21.68;57.12
62833;BME280;48891;49.220;6.920;2023-08-31T04:54:16;98603.69;;;21.64;56.99
62833;BME280;48891;49.220;6.920;2023-08-31T04:56:41;98607.88;;;21.67;56.96
62833;BME280;48891;49.220;6.920;2023-08-31T04:59:06;98597.28;;;21.65;57.18
62833;BME280;48891;49.220;6.920;2023-08-31T05:01:32;98604.34;;;21.66;57.06
62833;BME280;48891;49.220;6.920;2023-08-31T05:03:57;98599.16;;;21.65;57.23
62833;BME280;48891;49.220;6.920;2023-08-31T05:06:22;98604.50;;;21.65;56.99
62833;BME280;48891;49.220;6.920;2023-08-31T05:08:48;98604.50;;;21.65;57.26
62833;BME280;48891;49.220;6.920;2023-08-31T05:11:13;98603.69;;;21.64;57.09
62833;BME280;48891;49.220;6.920;2023-08-31T05:13:38;98609.03;;;21.64;56.95
62833;BME280;48891;49.220;6.920;2023-08-31T05:16:04;98609.88;;;21.65;56.91
62833;BME280;48891;49.220;6.920;2023-08-31T05:18:29;98611.72;;;21.64;57.10
62833;BME280;48891;49.220;6.920;2023-08-31T05:20:54;98620.91;;;21.61;57.18
62833;BME280;48891;49.220;6.920;2023-08-31T05:23:19;98610.84;;;21.55;56.86
62833;BME280;48891;49.220;6.920;2023-08-31T05:25:45;98632.31;;;21.64;56.91
62833;BME280;48891;49.220;6.920;2023-08-31T05:28:10;98642.22;;;21.63;56.88
62833;BME280;48891;49.220;6.920;2023-08-31T05:30:36;98630.66;;;21.63;57.44
62833;BME280;48891;49.220;6.920;2023-08-31T05:33:01;98632.50;;;21.62;56.86
62833;BME280;48891;49.220;6.920;2023-08-31T05:35:27;98630.97;;;21.59;57.04
62833;BME280;48891;49.220;6.920;2023-08-31T05:37:52;98637.03;;;21.61;56.87
62833;BME280;48891;49.220;6.920;2023-08-31T05:40:17;98631.66;;;21.61;57.05
62833;BME280;48891;49.220;6.920;2023-08-31T05:42:43;98629.84;;;21.62;57.26
62833;BME280;48891;49.220;6.920;2023-08-31T05:45:08;98641.56;;;21.61;57.07
62833;BME280;48891;49.220;6.920;2023-08-31T05:47:34;98643.41;;;21.60;57.00
62833;BME280;48891;49.220;6.920;2023-08-31T05:50:00;98649.75;;;21.59;56.90
62833;BME280;48891;49.220;6.920;2023-08-31T05:52:26;98645.22;;;21.60;57.19
62833;BME280;48891;49.220;6.920;2023-08-31T05:54:51;98644.53;;;21.58;57.12
62833;BME280;48891;49.220;6.920;2023-08-31T05:57:20;98643.41;;;21.60;57.17
62833;BME280;48891;49.220;6.920;2023-08-31T05:59:45;98649.75;;;21.59;57.11
62833;BME280;48891;49.220;6.920;2023-08-31T06:02:10;98646.41;;;21.57;57.34
62833;BME280;48891;49.220;6.920;2023-08-31T06:04:36;98646.19;;;21.51;57.04
62833;BME280;48891;49.220;6.920;2023-08-31T06:07:01;98662.34;;;21.59;57.16
62833;BME280;48891;49.220;6.920;2023-08-31T06:09:27;98657.13;;;21.57;57.18
62833;BME280;48891;49.220;6.920;2023-08-31T06:11:52;98665.03;;;21.59;56.94
62833;BME280;48891;49.220;6.920;2023-08-31T06:14:17;98674.91;;;21.58;57.04
62833;BME280;48891;49.220;6.920;2023-08-31T06:16:43;98668.69;;;21.58;57.20
62833;BME280;48891;49.220;6.920;2023-08-31T06:19:08;98669.56;;;21.58;57.12
62833;BME280;48891;49.220;6.920;2023-08-31T06:21:33;98668.69;;;21.58;57.02
62833;BME280;48891;49.220;6.920;2023-08-31T06:23:58;98662.66;;;21.56;57.09
62833;BME280;48891;49.220;6.920;2023-08-31T06:26:24;98676.72;;;21.58;57.21
62833;BME280;48891;49.220;6.920;2023-08-31T06:28:49;98669.56;;;21.58;56.98
62833;BME280;48891;49.220;6.920;2023-08-31T06:31:14;98657.06;;;21.49;57.32
62833;BME280;48891;49.220;6.920;2023-08-31T06:33:39;98677.59;;;21.58;57.04
62833;BME280;48891;49.220;6.920;2023-08-31T06:36:05;98674.22;;;21.56;56.77
62833;BME280;48891;49.220;6.920;2023-08-31T06:38:30;98667.03;;;21.57;57.07
62833;BME280;48891;49.220;6.920;2023-08-31T06:40:55;98682.09;;;21.58;56.85
62833;BME280;48891;49.220;6.920;2023-08-31T06:43:20;98675.91;;;21.57;57.14
62833;BME280;48891;49.220;6.920;2023-08-31T06:45:46;98681.94;;;21.59;57.05
62833;BME280;48891;49.220;6.920;2023-08-31T06:48:12;98688.47;;;21.57;56.68
62833;BME280;48891;49.220;6.920;2023-08-31T06:50:37;98679.41;;;21.58;56.85
62833;BME280;48891;49.220;6.920;2023-08-31T06:53:02;98679.91;;;21.53;56.88
62833;BME280;48891;49.220;6.920;2023-08-31T06:55:28;98692.84;;;21.58;57.32
62833;BME280;48891;49.220;6.920;2023-08-31T06:57:53;98697.38;;;21.57;56.93
62833;BME280;48891;49.220;6.920;2023-08-31T07:00:19;98694.53;;;21.59;57.18
62833;BME280;48891;49.220;6.920;2023-08-31T07:02:44;98700.72;;;21.59;56.81
62833;BME280;48891;49.220;6.920;2023-08-31T07:05:10;98717.66;;;21.60;57.09
62833;BME280;48891;49.220;6.920;2023-08-31T07:07:36;98693.47;;;21.52;56.95
62833;BME280;48891;49.220;6.920;2023-08-31T07:10:01;98683.31;;;21.37;57.04
62833;BME280;48891;49.220;6.920;2023-08-31T07:12:26;98713.16;;;21.60;57.25
62833;BME280;48891;49.220;6.920;2023-08-31T07:14:52;98722.19;;;21.59;57.05
62833;BME280;48891;49.220;6.920;2023-08-31T07:17:20;98720.31;;;21.60;57.15
62833;BME280;48891;49.220;6.920;2023-08-31T07:19:45;98709.41;;;21.53;56.96
62833;BME280;48891;49.220;6.920;2023-08-31T07:22:11;98717.66;;;21.60;57.02
62833;BME280;48891;49.220;6.920;2023-08-31T07:24:36;98694.31;;;21.52;57.26
62833;BME280;48891;49.220;6.920;2023-08-31T07:27:02;98715.66;;;21.62;57.31
62833;BME280;48891;49.220;6.920;2023-08-31T07:29:28;98718.00;;;21.65;56.99
62833;BME280;48891;49.220;6.920;2023-08-31T07:31:53;98725.06;;;21.66;57.28
62833;BME280;48891;49.220;6.920;2023-08-31T07:34:19;98723.22;;;21.67;57.76
62833;BME280;48891;49.220;6.920;2023-08-31T07:36:44;61680.38;;;-145.84;100.00
62833;BME280;48891;49.220;6.920;2023-08-31T07:39:09;61680.38;;;-145.84;100.00
62833;BME280;48891;49.220;6.920;2023-08-31T07:41:35;61680.38;;;-145.84;100.00
62833;BME280;48891;49.220;6.920;2023-08-31T07:44:01;61680.38;;;-145.84;100.00
62833;BME280;48891;49.220;6.920;2023-08-31T07:46:26;61680.38;;;-145.84;100.00
62833;BME280;48891;49.220;6.920;2023-08-31T07:48:51;61680.38;;;-145.84;100.00
62833;BME280;48891;49.220;6.920;2023-08-31T07:51:16;61680.38;;;-145.84;100.00
62833;BME280;48891;49.220;6.920;2023-08-31T07:53:42;61680.38;;;-145.84;100.00
62833;BME280;48891;49.220;6.920;2023-08-31T07:56:07;61680.38;;;-145.84;100.00
62833;BME280;48891;49.220;6.920;2023-08-31T07:58:32;61680.38;;;-145.84;100.00
62833;BME280;48891;49.220;6.920;2023-08-31T08:00:57;61680.38;;;-145.84;100.00
62833;BME280;48891;49.220;6.920;2023-08-31T08:03:23;61680.38;;;-145.84;100.00
62833;BME280;48891;49.220;6.920;2023-08-31T08:05:48;61680.38;;;-145.84;100.00
62833;BME280;48891;49.220;6.920;2023-08-31T08:08:14;61680.38;;;-145.84;100.00
62833;BME280;48891;49.220;6.920;2023-08-31T08:10:39;61680.38;;;-145.84;100.00
62833;BME280;48891;49.220;6.920;2023-08-31T08:13:04;61680.38;;;-145.84;100.00
62833;BME280;48891;49.220;6.920;2023-08-31T08:15:30;61680.38;;;-145.84;100.00
62833;BME280;48891;49.220;6.920;2023-08-31T08:17:56;61680.38;;;-145.84;100.00
62833;BME280;48891;49.220;6.920;2023-08-31T08:20:21;61680.38;;;-145.84;100.00
62833;BME280;48891;49.220;6.920;2023-08-31T08:22:46;61680.38;;;-145.84;100.00
62833;BME280;48891;49.220;6.920;2023-08-31T08:25:12;61680.38;;;-145.84;100.00
62833;BME280;48891;49.220;6.920;2023-08-31T08:27:37;61680.38;;;-145.84;100.00
62833;BME280;48891;49.220;6.920;2023-08-31T08:30:03;61680.38;;;-145.84;100.00
62833;BME280;48891;49.220;6.920;2023-08-31T08:32:28;61680.38;;;-145.84;100.00
62833;BME280;48891;49.220;6.920;2023-08-31T08:34:54;61680.38;;;-145.84;100.00
62833;BME280;48891;49.220;6.920;2023-08-31T08:37:19;61680.38;;;-145.84;100.00
62833;BME280;48891;49.220;6.920;2023-08-31T08:39:51;61680.38;;;-145.84;100.00
62833;BME280;48891;49.220;6.920;2023-08-31T08:42:18;61680.38;;;-145.84;100.00
62833;BME280;48891;49.220;6.920;2023-08-31T08:44:44;61680.38;;;-145.84;100.00
62833;BME280;48891;49.220;6.920;2023-08-31T08:47:11;61680.38;;;-145.84;100.00
62833;BME280;48891;49.220;6.920;2023-08-31T08:49:37;61680.38;;;-145.84;100.00
62833;BME280;48891;49.220;6.920;2023-08-31T08:52:03;61680.38;;;-145.84;100.00
62833;BME280;48891;49.220;6.920;2023-08-31T08:54:29;61680.38;;;-145.84;100.00
62833;BME280;48891;49.220;6.920;2023-08-31T08:56:54;61680.38;;;-145.84;100.00
62833;BME280;48891;49.220;6.920;2023-08-31T08:59:19;61680.38;;;-145.84;100.00
62833;BME280;48891;49.220;6.920;2023-08-31T09:01:45;61680.38;;;-145.84;100.00
62833;BME280;48891;49.220;6.920;2023-08-31T09:04:11;61680.38;;;-145.84;100.00
62833;BME280;48891;49.220;6.920;2023-08-31T09:06:36;61680.38;;;-145.84;100.00
62833;BME280;48891;49.220;6.920;2023-08-31T09:09:02;61680.38;;;-145.84;100.00
62833;BME280;48891;49.220;6.920;2023-08-31T09:11:27;61680.38;;;-145.84;100.00
62833;BME280;48891;49.220;6.920;2023-08-31T09:13:53;61680.38;;;-145.84;100.00
62833;BME280;48891;49.220;6.920;2023-08-31T09:18:51;61680.38;;;-145.84;100.00
62833;BME280;48891;49.220;6.920;2023-08-31T09:21:16;61680.38;;;-145.84;100.00
62833;BME280;48891;49.220;6.920;2023-08-31T09:23:41;61680.38;;;-145.84;100.00
62833;BME280;48891;49.220;6.920;2023-08-31T09:26:07;61680.38;;;-145.84;100.00
62833;BME280;48891;49.220;6.920;2023-08-31T09:28:32;61680.38;;;-145.84;100.00
62833;BME280;48891;49.220;6.920;2023-08-31T09:31:05;61680.38;;;-145.84;100.00
62833;BME280;48891;49.220;6.920;2023-08-31T09:33:31;61680.38;;;-145.84;100.00
62833;BME280;48891;49.220;6.920;2023-08-31T09:35:57;61680.38;;;-145.84;100.00
62833;BME280;48891;49.220;6.920;2023-08-31T09:38:24;61680.38;;;-145.84;100.00
62833;BME280;48891;49.220;6.920;2023-08-31T09:40:49;61680.38;;;-145.84;100.00
62833;BME280;48891;49.220;6.920;2023-08-31T09:43:22;61680.38;;;-145.84;100.00
62833;BME280;48891;49.220;6.920;2023-08-31T09:45:48;61680.38;;;-145.84;100.00
62833;BME280;48891;49.220;6.920;2023-08-31T09:48:15;61680.38;;;-145.84;100.00
62833;BME280;48891;49.220;6.920;2023-08-31T09:50:43;61680.38;;;-145.84;100.00
62833;BME280;48891;49.220;6.920;2023-08-31T09:53:10;61680.38;;;-145.84;100.00
62833;BME280;48891;49.220;6.920;2023-08-31T09:55:36;61680.38;;;-145.84;100.00
62833;BME280;48891;49.220;6.920;2023-08-31T09:58:04;61680.38;;;-145.84;100.00
62833;BME280;48891;49.220;6.920;2023-08-31T10:00:31;61680.38;;;-145.84;100.00
62833;BME280;48891;49.220;6.920;2023-08-31T10:03:00;61680.38;;;-145.84;100.00
62833;BME280;48891;49.220;6.920;2023-08-31T10:05:26;61680.38;;;-145.84;100.00
62833;BME280;48891;49.220;6.920;2023-08-31T10:07:52;61680.38;;;-145.84;100.00
62833;BME280;48891;49.220;6.920;2023-08-31T10:10:18;61680.38;;;-145.84;100.00
62833;BME280;48891;49.220;6.920;2023-08-31T10:12:48;61680.38;;;-145.84;100.00
62833;BME280;48891;49.220;6.920;2023-08-31T10:15:14;61680.38;;;-145.84;100.00
62833;BME280;48891;49.220;6.920;2023-08-31T10:17:40;61680.38;;;-145.84;100.00
62833;BME280;48891;49.220;6.920;2023-08-31T10:20:07;61680.38;;;-145.84;100.00
62833;BME280;48891;49.220;6.920;2023-08-31T10:22:33;61680.38;;;-145.84;100.00
62833;BME280;48891;49.220;6.920;2023-08-31T10:25:00;61680.38;;;-145.84;100.00
62833;BME280;48891;49.220;6.920;2023-08-31T10:27:27;61680.38;;;-145.84;100.00
62833;BME280;48891;49.220;6.920;2023-08-31T10:29:52;61680.38;;;-145.84;100.00
62833;BME280;48891;49.220;6.920;2023-08-31T10:32:19;61680.38;;;-145.84;100.00
62833;BME280;48891;49.220;6.920;2023-08-31T10:35:04;61680.38;;;-145.84;100.00
62833;BME280;48891;49.220;6.920;2023-08-31T10:37:29;61680.38;;;-145.84;100.00
62833;BME280;48891;49.220;6.920;2023-08-31T10:40:09;61680.38;;;-145.84;100.00
62833;BME280;48891;49.220;6.920;2023-08-31T10:42:45;61680.38;;;-145.84;100.00
62833;BME280;48891;49.220;6.920;2023-08-31T10:45:11;61680.38;;;-145.84;100.00
62833;BME280;48891;49.220;6.920;2023-08-31T10:47:40;61680.38;;;-145.84;100.00
62833;BME280;48891;49.220;6.920;2023-08-31T10:50:41;61680.38;;;-145.84;100.00
62833;BME280;48891;49.220;6.920;2023-08-31T10:53:09;61680.38;;;-145.84;100.00
62833;BME280;48891;49.220;6.920;2023-08-31T10:55:52;61680.38;;;-145.84;100.00
62833;BME280;48891;49.220;6.920;2023-08-31T10:58:18;61680.38;;;-145.84;100.00
62833;BME280;48891;49.220;6.920;2023-08-31T11:00:51;61680.38;;;-145.84;100.00
62833;BME280;48891;49.220;6.920;2023-08-31T11:03:16;61680.38;;;-145.84;100.00
62833;BME280;48891;49.220;6.920;2023-08-31T11:05:52;61680.38;;;-145.84;100.00
62833;BME280;48891;49.220;6.920;2023-08-31T11:08:25;61680.38;;;-145.84;100.00
62833;BME280;48891;49.220;6.920;2023-08-31T11:10:53;61680.38;;;-145.84;100.00
62833;BME280;48891;49.220;6.920;2023-08-31T11:13:19;61680.38;;;-145.84;100.00
62833;BME280;48891;49.220;6.920;2023-08-31T11:15:45;61680.38;;;-145.84;100.00
62833;BME280;48891;49.220;6.920;2023-08-31T11:18:11;61680.38;;;-145.84;100.00
62833;BME280;48891;49.220;6.920;2023-08-31T11:20:37;61680.38;;;-145.84;100.00
62833;BME280;48891;49.220;6.920;2023-08-31T11:23:03;61680.38;;;-145.84;100.00
62833;BME280;48891;49.220;6.920;2023-08-31T11:25:30;61680.38;;;-145.84;100.00
62833;BME280;48891;49.220;6.920;2023-08-31T11:28:00;61680.38;;;-145.84;100.00
62833;BME280;48891;49.220;6.920;2023-08-31T11:30:30;61680.38;;;-145.84;100.00
62833;BME280;48891;49.220;6.920;2023-08-31T11:32:56;61680.38;;;-145.84;100.00
62833;BME280;48891;49.220;6.920;2023-08-31T11:35:22;61680.38;;;-145.84;100.00
62833;BME280;48891;49.220;6.920;2023-08-31T11:37:55;61680.38;;;-145.84;100.00
62833;BME280;48891;49.220;6.920;2023-08-31T11:40:22;61680.38;;;-145.84;100.00
62833;BME280;48891;49.220;6.920;2023-08-31T11:42:48;61680.38;;;-145.84;100.00
62833;BME280;48891;49.220;6.920;2023-08-31T11:45:14;61680.38;;;-145.84;100.00
62833;BME280;48891;49.220;6.920;2023-08-31T11:47:40;61680.38;;;-145.84;100.00
62833;BME280;48891;49.220;6.920;2023-08-31T11:50:07;61680.38;;;-145.84;100.00
62833;BME280;48891;49.220;6.920;2023-08-31T11:52:33;61680.38;;;-145.84;100.00
62833;BME280;48891;49.220;6.920;2023-08-31T11:54:58;61680.38;;;-145.84;100.00
62833;BME280;48891;49.220;6.920;2023-08-31T11:57:27;61680.38;;;-145.84;100.00
62833;BME280;48891;49.220;6.920;2023-08-31T11:59:52;61680.38;;;-145.84;100.00
62833;BME280;48891;49.220;6.920;2023-08-31T12:02:19;61680.38;;;-145.84;100.00
62833;BME280;48891;49.220;6.920;2023-08-31T12:04:45;61680.38;;;-145.84;100.00
62833;BME280;48891;49.220;6.920;2023-08-31T12:07:11;61680.38;;;-145.84;100.00
62833;BME280;48891;49.220;6.920;2023-08-31T12:09:37;61680.38;;;-145.84;100.00
62833;BME280;48891;49.220;6.920;2023-08-31T12:12:02;61680.38;;;-145.84;100.00
62833;BME280;48891;49.220;6.920;2023-08-31T12:14:27;61680.38;;;-145.84;100.00
62833;BME280;48891;49.220;6.920;2023-08-31T12:17:00;61680.38;;;-145.84;100.00
62833;BME280;48891;49.220;6.920;2023-08-31T12:19:27;61680.38;;;-145.84;100.00
62833;BME280;48891;49.220;6.920;2023-08-31T12:21:53;61680.38;;;-145.84;100.00
62833;BME280;48891;49.220;6.920;2023-08-31T12:24:18;61680.38;;;-145.84;100.00
62833;BME280;48891;49.220;6.920;2023-08-31T12:26:43;61680.38;;;-145.84;100.00
62833;BME280;48891;49.220;6.920;2023-08-31T12:29:09;61680.38;;;-145.84;100.00
62833;BME280;48891;49.220;6.920;2023-08-31T12:31:34;61680.38;;;-145.84;100.00
62833;BME280;48891;49.220;6.920;2023-08-31T12:33:59;61680.38;;;-145.84;100.00
62833;BME280;48891;49.220;6.920;2023-08-31T12:36:25;61680.38;;;-145.84;100.00
62833;BME280;48891;49.220;6.920;2023-08-31T12:38:50;61680.38;;;-145.84;100.00
62833;BME280;48891;49.220;6.920;2023-08-31T12:41:17;61680.38;;;-145.84;100.00
62833;BME280;48891;49.220;6.920;2023-08-31T12:43:42;61680.38;;;-145.84;100.00
62833;BME280;48891;49.220;6.920;2023-08-31T12:46:07;61680.38;;;-145.84;100.00